createdAt,value
2023-05-18T00:02:26.646Z,0.65
2023-05-18T00:05:34.097Z,0.80
2023-05-18T00:08:36.400Z,0.60
2023-05-18T00:11:41.113Z,0.80
2023-05-18T00:14:42.625Z,0.60
2023-05-18T00:17:44.215Z,0.65
2023-05-18T00:20:45.894Z,0.65
2023-05-18T00:23:49.692Z,0.60
2023-05-18T00:26:51.276Z,1.17
2023-05-18T00:29:52.898Z,0.60
2023-05-18T00:32:54.616Z,0.60
2023-05-18T00:35:57.579Z,0.50
2023-05-18T00:38:59.465Z,0.50
2023-05-18T00:42:01.343Z,0.60
2023-05-18T00:45:02.968Z,0.60
2023-05-18T00:48:04.777Z,0.80
2023-05-18T00:51:06.614Z,0.57
2023-05-18T00:54:08.404Z,0.52
2023-05-18T00:57:10.031Z,0.50
2023-05-18T01:00:13.872Z,0.60
2023-05-18T01:03:15.757Z,0.60
2023-05-18T01:06:18.523Z,0.60
2023-05-18T01:09:20.076Z,0.52
2023-05-18T01:12:25.797Z,0.60
2023-05-18T01:15:33.028Z,0.70
2023-05-18T01:18:38.306Z,1.00
2023-05-18T01:21:57.699Z,1.00
2023-05-18T01:25:10.693Z,0.98
2023-05-18T01:28:16.381Z,0.85
2023-05-18T01:31:18.512Z,1.80
2023-05-18T01:34:20.145Z,1.15
2023-05-18T01:37:21.660Z,1.10
2023-05-18T01:40:23.772Z,1.00
2023-05-18T01:43:28.524Z,0.90
2023-05-18T01:46:39.325Z,0.73
2023-05-18T01:49:53.208Z,0.60
2023-05-18T01:53:00.643Z,0.80
2023-05-18T01:59:03.652Z,0.60
2023-05-18T02:02:05.687Z,0.80
2023-05-18T02:05:07.765Z,0.70
2023-05-18T02:08:09.420Z,0.70
2023-05-18T02:11:11.176Z,0.80
2023-05-18T02:14:12.712Z,0.90
2023-05-18T02:17:14.232Z,0.90
2023-05-18T02:20:18.568Z,0.95
2023-05-18T02:23:20.164Z,0.80
2023-05-18T02:26:21.727Z,0.88
2023-05-18T02:29:23.314Z,0.80
2023-05-18T02:32:24.944Z,0.98
2023-05-18T02:35:26.570Z,0.95
2023-05-18T02:38:28.084Z,1.10
2023-05-18T02:41:29.641Z,1.15
2023-05-18T02:44:31.576Z,0.80
2023-05-18T02:47:33.173Z,1.00
2023-05-18T02:50:34.717Z,0.82
2023-05-18T02:53:36.281Z,1.00
2023-05-18T02:56:38.571Z,1.90
2023-05-18T02:59:40.216Z,0.80
2023-05-18T03:02:41.844Z,0.90
2023-05-18T03:05:43.632Z,0.75
2023-05-18T03:08:45.192Z,1.00
2023-05-18T03:11:46.750Z,0.82
2023-05-18T03:14:48.316Z,0.95
2023-05-18T03:17:50.001Z,0.65
2023-05-18T03:20:52.356Z,0.98
2023-05-18T03:23:53.868Z,1.00
2023-05-18T03:26:57.139Z,0.90
2023-05-18T03:29:58.710Z,0.80
2023-05-18T03:33:03.474Z,0.70
2023-05-18T03:36:05.206Z,1.25
2023-05-18T03:39:06.913Z,1.00
2023-05-18T03:42:08.467Z,0.70
2023-05-18T03:45:10.945Z,0.90
2023-05-18T03:48:12.501Z,0.95
2023-05-18T03:51:14.200Z,1.10
2023-05-18T03:54:15.874Z,0.88
2023-05-18T03:57:17.945Z,0.70
2023-05-18T04:00:20.074Z,0.70
2023-05-18T04:03:25.119Z,0.70
2023-05-18T04:06:26.826Z,0.80
2023-05-18T04:09:29.377Z,0.80
2023-05-18T04:12:31.104Z,0.70
2023-05-18T04:15:33.805Z,0.80
2023-05-18T04:18:36.436Z,0.75
2023-05-18T04:21:38.255Z,0.62
2023-05-18T04:24:41.426Z,0.80
2023-05-18T04:27:43.866Z,0.82
2023-05-18T04:30:46.182Z,0.80
2023-05-18T04:33:47.775Z,0.80
2023-05-18T04:36:49.322Z,1.37
2023-05-18T04:39:51.492Z,0.60
2023-05-18T04:42:53.092Z,0.65
2023-05-18T04:45:55.022Z,0.70
2023-05-18T04:48:58.147Z,0.73
2023-05-18T04:52:00.090Z,0.80
2023-05-18T04:55:01.702Z,0.70
2023-05-18T04:58:03.640Z,0.80
2023-05-18T05:01:06.418Z,0.80
2023-05-18T05:04:08.066Z,0.90
2023-05-18T05:07:09.634Z,0.98
2023-05-18T05:10:11.326Z,0.90
2023-05-18T05:13:12.877Z,0.90
2023-05-18T05:16:14.458Z,0.90
2023-05-18T05:19:16.118Z,1.12
2023-05-18T05:22:19.829Z,0.80
2023-05-18T05:25:21.819Z,0.75
2023-05-18T05:28:23.460Z,0.80
2023-05-18T05:31:25.108Z,0.90
2023-05-18T05:34:26.701Z,0.90
2023-05-18T05:37:28.440Z,0.68
2023-05-18T05:40:30.035Z,0.90
2023-05-18T05:43:31.670Z,1.00
2023-05-18T05:46:33.254Z,1.25
2023-05-18T05:49:37.538Z,1.20
2023-05-18T05:52:39.072Z,0.85
2023-05-18T05:55:43.642Z,0.90
2023-05-18T05:58:45.407Z,0.80
2023-05-18T06:01:47.232Z,0.77
2023-05-18T06:04:48.818Z,0.70
2023-05-18T06:07:50.429Z,1.02
2023-05-18T06:10:52.186Z,1.37
2023-05-18T06:13:53.693Z,0.82
2023-05-18T06:16:55.271Z,0.90
2023-05-18T06:19:56.915Z,0.98
2023-05-18T06:22:58.525Z,0.90
2023-05-18T06:26:00.185Z,1.10
2023-05-18T06:29:03.064Z,1.00
2023-05-18T06:32:04.833Z,0.70
2023-05-18T06:35:06.648Z,1.10
2023-05-18T06:38:08.771Z,1.00
2023-05-18T06:41:10.385Z,1.00
2023-05-18T06:44:12.405Z,1.00
2023-05-18T06:47:13.984Z,0.90
2023-05-18T06:50:15.873Z,1.30
2023-05-18T06:53:17.480Z,1.20
2023-05-18T06:56:19.094Z,1.20
2023-05-18T06:59:20.737Z,1.58
2023-05-18T07:02:22.456Z,1.23
2023-05-18T07:05:24.471Z,1.60
2023-05-18T07:08:26.131Z,1.50
2023-05-18T07:11:29.618Z,1.20
2023-05-18T07:14:31.506Z,1.33
2023-05-18T07:17:33.062Z,1.30
2023-05-18T07:20:34.972Z,1.20
2023-05-18T07:23:36.589Z,1.00
2023-05-18T07:26:38.101Z,1.00
2023-05-18T07:29:39.658Z,0.90
2023-05-18T07:32:45.220Z,1.10
2023-05-18T07:35:46.794Z,0.98
2023-05-18T07:38:53.018Z,0.98
2023-05-18T07:41:55.148Z,0.80
2023-05-18T07:44:56.809Z,0.93
2023-05-18T07:47:58.697Z,0.80
2023-05-18T07:51:00.283Z,1.10
2023-05-18T07:54:02.050Z,1.15
2023-05-18T07:57:04.347Z,0.98
2023-05-18T08:00:10.298Z,0.80
2023-05-18T08:03:12.052Z,1.00
2023-05-18T08:06:13.718Z,0.90
2023-05-18T08:09:15.342Z,0.80
2023-05-18T08:12:16.929Z,1.00
2023-05-18T08:15:18.503Z,0.95
2023-05-18T08:18:20.067Z,0.93
2023-05-18T08:21:21.661Z,0.80
2023-05-18T08:24:23.203Z,1.00
2023-05-18T08:27:24.915Z,0.93
2023-05-18T08:30:26.910Z,1.17
2023-05-18T08:33:28.529Z,0.80
2023-05-18T08:36:30.821Z,1.10
2023-05-18T08:39:32.468Z,0.80
2023-05-18T08:42:48.494Z,1.40
2023-05-18T08:45:55.035Z,0.77
2023-05-18T08:48:58.671Z,1.10
2023-05-18T08:52:03.089Z,1.40
2023-05-18T08:55:06.192Z,1.17
2023-05-18T08:58:09.279Z,1.20
2023-05-18T09:01:11.827Z,0.98
2023-05-18T09:04:13.747Z,1.20
2023-05-18T09:07:16.222Z,0.80
2023-05-18T09:10:18.324Z,1.08
2023-05-18T09:13:22.933Z,1.00
2023-05-18T09:16:24.762Z,1.00
2023-05-18T09:19:26.587Z,0.90
2023-05-18T09:22:28.953Z,1.00
2023-05-18T09:25:32.325Z,1.05
2023-05-18T09:28:38.315Z,1.20
2023-05-18T09:31:39.976Z,1.12
2023-05-18T09:34:46.138Z,1.30
2023-05-18T09:37:47.704Z,1.35
2023-05-18T09:40:50.118Z,1.20
2023-05-18T09:43:52.531Z,1.10
2023-05-18T09:46:57.674Z,1.02
2023-05-18T09:49:59.231Z,1.10
2023-05-18T09:53:00.829Z,0.90
2023-05-18T09:56:05.581Z,1.00
2023-05-18T09:59:11.324Z,1.08
2023-05-18T10:02:13.546Z,0.90
2023-05-18T10:05:27.363Z,0.93
2023-05-18T10:08:29.057Z,1.20
2023-05-18T10:11:33.863Z,1.10
2023-05-18T10:14:36.620Z,1.58
2023-05-18T10:17:39.304Z,1.42
2023-05-18T10:20:41.513Z,1.40
2023-05-18T10:23:44.301Z,1.10
2023-05-18T10:26:46.730Z,1.33
2023-05-18T10:29:50.066Z,1.20
2023-05-18T10:32:52.509Z,1.60
2023-05-18T10:35:54.646Z,1.75
2023-05-18T10:38:57.396Z,1.50
2023-05-18T10:41:59.268Z,1.50
2023-05-18T10:45:01.772Z,1.60
2023-05-18T10:48:05.144Z,1.50
2023-05-18T10:51:07.555Z,1.30
2023-05-18T10:54:13.470Z,1.45
2023-05-18T10:57:16.463Z,1.48
2023-05-18T11:00:18.641Z,1.58
2023-05-18T11:03:20.775Z,1.60
2023-05-18T11:06:24.162Z,1.20
2023-05-18T11:09:26.490Z,1.65
2023-05-18T11:12:28.171Z,1.27
2023-05-18T11:15:48.676Z,1.20
2023-05-18T11:18:51.088Z,1.30
2023-05-18T11:21:53.085Z,1.40
2023-05-18T11:24:54.666Z,1.30
2023-05-18T11:28:01.915Z,1.52
2023-05-18T11:31:04.035Z,1.60
2023-05-18T11:34:25.665Z,1.40
2023-05-18T11:37:39.384Z,1.83
2023-05-18T11:40:44.753Z,1.40
2023-05-18T11:43:46.343Z,1.37
2023-05-18T11:46:55.465Z,1.70
2023-05-18T11:49:57.281Z,1.77
2023-05-18T11:52:59.753Z,1.70
2023-05-18T11:56:01.297Z,1.40
2023-05-18T11:59:13.087Z,1.67
2023-05-18T12:02:22.179Z,1.70
2023-05-18T12:05:23.903Z,1.40
2023-05-18T12:08:29.637Z,1.65
2023-05-18T12:11:31.438Z,1.70
2023-05-18T12:14:34.962Z,1.40
2023-05-18T12:17:40.377Z,1.48
2023-05-18T12:20:42.062Z,1.70
2023-05-18T12:23:43.640Z,1.60
2023-05-18T12:26:46.796Z,1.33
2023-05-18T12:29:48.428Z,1.77
2023-05-18T12:32:50.019Z,1.70
2023-05-18T12:35:54.763Z,1.70
2023-05-18T12:38:56.415Z,1.73
2023-05-18T12:42:11.328Z,1.50
2023-05-18T12:45:12.887Z,1.30
2023-05-18T12:48:15.234Z,1.50
2023-05-18T12:51:20.297Z,1.40
2023-05-18T12:54:29.828Z,1.30
2023-05-18T12:57:33.125Z,1.67
2023-05-18T13:00:35.467Z,1.30
2023-05-18T13:03:40.570Z,1.60
2023-05-18T13:06:42.666Z,1.65
2023-05-18T13:09:47.849Z,2.80
2023-05-18T13:12:50.926Z,1.77
2023-05-18T13:15:52.603Z,1.30
2023-05-18T13:18:58.036Z,1.65
2023-05-18T13:21:59.599Z,1.30
2023-05-18T13:25:01.129Z,1.23
2023-05-18T13:28:03.263Z,1.30
2023-05-18T13:31:04.890Z,1.65
2023-05-18T13:34:06.480Z,1.33
2023-05-18T13:37:09.368Z,1.42
2023-05-18T13:40:13.813Z,1.75
2023-05-18T13:43:15.409Z,2.97
2023-05-18T13:46:17.034Z,1.55
2023-05-18T13:49:18.628Z,1.50
2023-05-18T13:52:20.133Z,1.75
2023-05-18T13:55:21.828Z,1.20
2023-05-18T13:58:25.682Z,0.98
2023-05-18T14:01:27.326Z,1.08
2023-05-18T14:04:28.955Z,1.20
2023-05-18T14:07:30.798Z,1.80
2023-05-18T14:10:32.601Z,1.80
2023-05-18T14:13:34.532Z,1.30
2023-05-18T14:16:36.959Z,1.10
2023-05-18T14:19:38.574Z,1.55
2023-05-18T14:22:40.263Z,1.10
2023-05-18T14:25:43.766Z,1.15
2023-05-18T14:28:45.361Z,1.20
2023-05-18T14:31:46.959Z,1.70
2023-05-18T14:34:51.653Z,2.90
2023-05-18T14:37:53.180Z,2.00
2023-05-18T14:40:54.752Z,1.65
2023-05-18T14:43:56.441Z,1.65
2023-05-18T14:46:58.063Z,1.15
2023-05-18T14:49:59.598Z,1.60
2023-05-18T14:53:01.163Z,1.60
2023-05-18T14:56:06.155Z,1.60
2023-05-18T14:59:10.091Z,1.30
2023-05-18T15:02:11.766Z,1.62
2023-05-18T15:05:13.377Z,1.70
2023-05-18T15:08:14.928Z,1.40
2023-05-18T15:11:16.502Z,1.67
2023-05-18T15:14:18.269Z,1.70
2023-05-18T15:17:20.352Z,1.65
2023-05-18T15:20:23.667Z,2.83
2023-05-18T15:23:26.368Z,2.85
2023-05-18T15:26:27.952Z,1.67
2023-05-18T15:29:29.559Z,1.30
2023-05-18T15:32:31.165Z,1.80
2023-05-18T15:35:34.885Z,1.67
2023-05-18T15:38:36.500Z,2.30
2023-05-18T15:41:38.064Z,1.83
2023-05-18T15:44:39.616Z,2.03
2023-05-18T15:47:42.354Z,1.85
2023-05-18T15:50:43.955Z,1.62
2023-05-18T15:53:45.606Z,1.37
2023-05-18T15:56:47.225Z,1.60
2023-05-18T15:59:48.982Z,1.60
2023-05-18T16:02:50.567Z,1.90
2023-05-18T16:05:52.216Z,3.83
2023-05-18T16:08:53.786Z,2.30
2023-05-18T16:11:55.314Z,1.98
2023-05-18T16:14:56.819Z,1.75
2023-05-18T16:17:58.412Z,2.15
2023-05-18T16:21:00.056Z,2.47
2023-05-18T16:24:01.816Z,2.92
2023-05-18T16:27:03.420Z,2.30
2023-05-18T16:30:05.268Z,2.15
2023-05-18T16:33:06.960Z,2.33
2023-05-18T16:36:08.669Z,1.98
2023-05-18T16:39:10.201Z,1.90
2023-05-18T16:42:12.416Z,2.20
2023-05-18T16:45:14.034Z,2.30
2023-05-18T16:48:15.830Z,2.65
2023-05-18T16:51:17.413Z,2.35
2023-05-18T16:54:18.973Z,2.87
2023-05-18T16:57:21.157Z,2.80
2023-05-18T17:00:23.077Z,3.05
2023-05-18T17:03:24.696Z,3.70
2023-05-18T17:06:26.416Z,3.70
2023-05-18T17:09:27.992Z,3.00
2023-05-18T17:12:29.788Z,3.53
2023-05-18T17:15:31.887Z,3.53
2023-05-18T17:18:33.632Z,4.57
2023-05-18T17:21:35.218Z,4.87
2023-05-18T17:24:37.323Z,4.78
2023-05-18T17:27:38.865Z,5.78
2023-05-18T17:30:40.507Z,4.95
2023-05-18T17:33:47.079Z,4.12
2023-05-18T17:36:48.875Z,4.10
2023-05-18T17:39:50.515Z,3.40
2023-05-18T17:42:52.186Z,3.00
2023-05-18T17:45:53.745Z,4.20
2023-05-18T17:48:55.621Z,4.72
2023-05-18T17:51:57.704Z,5.50
2023-05-18T17:54:59.291Z,5.10
2023-05-18T17:58:02.530Z,5.05
2023-05-18T18:01:04.492Z,5.10
2023-05-18T18:04:06.559Z,5.20
2023-05-18T18:07:08.564Z,5.10
2023-05-18T18:10:10.307Z,5.93
2023-05-18T18:13:11.935Z,6.20
2023-05-18T18:16:13.751Z,8.60
2023-05-18T18:19:15.965Z,8.75
2023-05-18T18:22:17.925Z,8.95
2023-05-18T18:25:19.732Z,8.10
2023-05-18T18:28:21.335Z,6.43
2023-05-18T18:31:23.116Z,5.53
2023-05-18T18:34:25.160Z,4.93
2023-05-18T18:37:27.906Z,5.30
2023-05-18T18:40:30.192Z,5.85
2023-05-18T18:43:32.201Z,11.23
2023-05-18T18:46:34.745Z,6.90
2023-05-18T18:49:37.269Z,6.53
2023-05-18T18:52:39.581Z,4.80
2023-05-18T18:55:41.569Z,4.87
2023-05-18T18:58:43.619Z,4.28
2023-05-18T19:01:46.530Z,3.60
2023-05-18T19:04:48.638Z,3.85
2023-05-18T19:07:50.548Z,3.45
2023-05-18T19:10:52.179Z,3.20
2023-05-18T19:13:53.988Z,4.65
2023-05-18T19:16:56.273Z,4.25
2023-05-18T19:19:58.175Z,4.18
2023-05-18T19:23:00.287Z,3.80
2023-05-18T19:26:02.260Z,4.50
2023-05-18T19:29:04.442Z,4.50
2023-05-18T19:32:06.719Z,3.92
2023-05-18T19:35:08.686Z,2.83
2023-05-18T19:38:10.429Z,2.72
2023-05-18T19:41:13.153Z,3.20
2023-05-18T19:44:15.033Z,2.80
2023-05-18T19:47:16.976Z,4.82
2023-05-18T19:50:18.720Z,3.25
2023-05-18T19:53:20.671Z,3.25
2023-05-18T19:56:22.614Z,2.60
2023-05-18T19:59:24.223Z,2.37
2023-05-18T20:02:26.283Z,2.20
2023-05-18T20:05:28.069Z,2.55
2023-05-18T20:08:29.941Z,2.53
2023-05-18T20:11:31.529Z,2.40
2023-05-18T20:14:33.534Z,3.05
2023-05-18T20:17:35.158Z,2.47
2023-05-18T20:20:37.716Z,2.47
2023-05-18T20:23:39.283Z,2.60
2023-05-18T20:26:40.782Z,2.50
2023-05-18T20:29:42.455Z,2.30
2023-05-18T20:32:44.017Z,2.33
2023-05-18T20:35:45.711Z,2.50
2023-05-18T20:38:47.255Z,2.22
2023-05-18T20:41:50.456Z,2.42
2023-05-18T20:44:52.591Z,3.10
2023-05-18T20:47:54.335Z,2.85
2023-05-18T20:50:57.241Z,2.58
2023-05-18T20:53:58.926Z,2.60
2023-05-18T20:57:00.511Z,2.65
2023-05-18T21:00:05.098Z,2.58
2023-05-18T21:03:07.611Z,2.60
2023-05-18T21:06:09.362Z,2.83
2023-05-18T21:09:11.013Z,2.72
2023-05-18T21:12:12.569Z,2.92
2023-05-18T21:15:14.121Z,2.97
2023-05-18T21:18:15.718Z,2.78
2023-05-18T21:21:17.262Z,2.62
2023-05-18T21:24:19.043Z,2.80
2023-05-18T21:27:20.597Z,2.65
2023-05-18T21:30:22.189Z,2.50
2023-05-18T21:33:23.781Z,2.75
2023-05-18T21:36:34.423Z,3.12
2023-05-18T21:39:36.189Z,2.90
2023-05-18T21:42:41.357Z,2.90
2023-05-18T21:45:42.996Z,2.60
2023-05-18T21:48:44.624Z,2.70
2023-05-18T21:51:46.256Z,2.72
2023-05-18T21:54:47.759Z,2.47
2023-05-18T21:57:49.274Z,2.78
2023-05-18T22:00:50.914Z,2.55
2023-05-18T22:03:52.573Z,2.37
2023-05-18T22:06:54.736Z,2.75
2023-05-18T22:09:56.496Z,2.90
2023-05-18T22:12:58.186Z,2.30
2023-05-18T22:15:59.741Z,2.20
2023-05-18T22:19:01.379Z,2.90
2023-05-18T22:22:02.970Z,2.58
2023-05-18T22:25:04.707Z,2.67
2023-05-18T22:28:06.274Z,2.58
2023-05-18T22:31:07.827Z,2.60
2023-05-18T22:34:09.359Z,2.55
2023-05-18T22:37:11.005Z,2.75
2023-05-18T22:40:12.849Z,2.37
2023-05-18T22:43:14.363Z,3.20
2023-05-18T22:46:16.007Z,2.60
2023-05-18T22:49:17.689Z,2.92
2023-05-18T22:52:19.817Z,2.58
2023-05-18T22:55:21.473Z,2.67
2023-05-18T22:58:23.005Z,2.90
2023-05-18T23:01:24.531Z,3.03
2023-05-18T23:04:26.135Z,2.53
2023-05-18T23:07:27.749Z,2.67
2023-05-18T23:10:29.390Z,2.80
2023-05-18T23:13:31.147Z,2.55
2023-05-18T23:16:32.871Z,2.78
2023-05-18T23:19:36.136Z,2.75
2023-05-18T23:22:37.689Z,2.62
2023-05-18T23:25:39.240Z,2.40
2023-05-18T23:28:40.778Z,2.30
2023-05-18T23:31:42.369Z,2.53
2023-05-18T23:34:44.475Z,3.10
2023-05-18T23:37:48.288Z,2.83
2023-05-18T23:40:52.497Z,2.12
2023-05-18T23:43:54.349Z,2.22
2023-05-18T23:46:56.181Z,2.22
2023-05-18T23:49:57.856Z,2.22
2023-05-18T23:53:01.093Z,2.37
2023-05-18T23:56:02.816Z,2.10
2023-05-18T23:59:04.520Z,2.58
